sensor_id;sensor_type;location;lat;lon;timestamp;P1;durP1;ratioP1;P2;durP2;ratioP2
63690;SDS011;49837;57.280;27.070;2024-01-30T00:00:47;25.6;;;18.3;;
63690;SDS011;49837;57.280;27.070;2024-01-30T00:01:48;40.8;;;25.3;;
63690;SDS011;49837;57.280;27.070;2024-01-30T00:02:48;87.1;;;47.2;;
63690;SDS011;49837;57.280;27.070;2024-01-30T00:03:48;39.2;;;23.0;;
63690;SDS011;49837;57.280;27.070;2024-01-30T00:04:49;36.3;;;22.5;;
63690;SDS011;49837;57.280;27.070;2024-01-30T00:05:49;20.8;;;15.6;;
63690;SDS011;49837;57.280;27.070;2024-01-30T00:06:50;23.6;;;16.0;;
63690;SDS011;49837;57.280;27.070;2024-01-30T00:07:50;24.2;;;16.5;;
63690;SDS011;49837;57.280;27.070;2024-01-30T00:08:50;23.6;;;16.2;;
63690;SDS011;49837;57.280;27.070;2024-01-30T00:09:50;20.9;;;14.8;;
63690;SDS011;49837;57.280;27.070;2024-01-30T00:10:51;22.6;;;15.5;;
63690;SDS011;49837;57.280;27.070;2024-01-30T00:11:51;21.4;;;15.0;;
63690;SDS011;49837;57.280;27.070;2024-01-30T00:12:51;22.0;;;15.9;;
63690;SDS011;49837;57.280;27.070;2024-01-30T00:13:52;22.3;;;16.2;;
63690;SDS011;49837;57.280;27.070;2024-01-30T00:14:52;23.4;;;16.3;;
63690;SDS011;49837;57.280;27.070;2024-01-30T00:15:52;25.5;;;17.2;;
63690;SDS011;49837;57.280;27.070;2024-01-30T00:16:53;22.6;;;16.6;;
63690;SDS011;49837;57.280;27.070;2024-01-30T00:17:53;25.2;;;18.4;;
63690;SDS011;49837;57.280;27.070;2024-01-30T00:18:54;24.8;;;19.4;;
63690;SDS011;49837;57.280;27.070;2024-01-30T00:19:54;24.2;;;17.5;;
63690;SDS011;49837;57.280;27.070;2024-01-30T00:20:54;21.5;;;15.7;;
63690;SDS011;49837;57.280;27.070;2024-01-30T00:21:54;21.5;;;15.8;;
63690;SDS011;49837;57.280;27.070;2024-01-30T00:22:55;21.5;;;15.3;;
63690;SDS011;49837;57.280;27.070;2024-01-30T00:23:55;22.6;;;15.9;;
63690;SDS011;49837;57.280;27.070;2024-01-30T00:24:56;22.8;;;16.0;;
63690;SDS011;49837;57.280;27.070;2024-01-30T00:25:56;21.6;;;15.6;;
63690;SDS011;49837;57.280;27.070;2024-01-30T00:26:56;21.2;;;15.2;;
63690;SDS011;49837;57.280;27.070;2024-01-30T00:27:57;22.3;;;15.8;;
63690;SDS011;49837;57.280;27.070;2024-01-30T00:28:57;22.7;;;16.0;;
63690;SDS011;49837;57.280;27.070;2024-01-30T00:29:57;20.9;;;15.4;;
63690;SDS011;49837;57.280;27.070;2024-01-30T00:30:58;23.5;;;16.7;;
63690;SDS011;49837;57.280;27.070;2024-01-30T00:31:58;21.5;;;15.6;;
63690;SDS011;49837;57.280;27.070;2024-01-30T00:32:58;22.5;;;15.2;;
63690;SDS011;49837;57.280;27.070;2024-01-30T00:33:59;22.9;;;15.9;;
63690;SDS011;49837;57.280;27.070;2024-01-30T00:34:59;21.6;;;15.3;;
63690;SDS011;49837;57.280;27.070;2024-01-30T00:35:59;23.2;;;16.2;;
63690;SDS011;49837;57.280;27.070;2024-01-30T00:37:00;20.9;;;15.4;;
63690;SDS011;49837;57.280;27.070;2024-01-30T00:38:00;24.4;;;16.1;;
63690;SDS011;49837;57.280;27.070;2024-01-30T00:39:00;22.0;;;15.5;;
63690;SDS011;49837;57.280;27.070;2024-01-30T00:40:01;21.5;;;14.9;;
63690;SDS011;49837;57.280;27.070;2024-01-30T00:41:01;23.7;;;15.5;;
63690;SDS011;49837;57.280;27.070;2024-01-30T00:42:01;21.9;;;15.2;;
63690;SDS011;49837;57.280;27.070;2024-01-30T00:43:02;23.3;;;16.1;;
63690;SDS011;49837;57.280;27.070;2024-01-30T00:44:02;23.2;;;16.0;;
63690;SDS011;49837;57.280;27.070;2024-01-30T00:45:03;23.4;;;15.9;;
63690;SDS011;49837;57.280;27.070;2024-01-30T00:46:03;23.0;;;16.6;;
63690;SDS011;49837;57.280;27.070;2024-01-30T00:47:03;22.1;;;15.9;;
63690;SDS011;49837;57.280;27.070;2024-01-30T00:48:04;23.3;;;15.2;;
63690;SDS011;49837;57.280;27.070;2024-01-30T00:49:04;21.4;;;15.6;;
63690;SDS011;49837;57.280;27.070;2024-01-30T00:50:04;22.5;;;15.5;;
63690;SDS011;49837;57.280;27.070;2024-01-30T00:51:04;21.9;;;16.1;;
63690;SDS011;49837;57.280;27.070;2024-01-30T00:52:05;22.6;;;15.8;;
63690;SDS011;49837;57.280;27.070;2024-01-30T00:53:05;21.2;;;15.7;;
63690;SDS011;49837;57.280;27.070;2024-01-30T00:54:05;21.3;;;14.7;;
63690;SDS011;49837;57.280;27.070;2024-01-30T00:55:06;20.4;;;15.4;;
63690;SDS011;49837;57.280;27.070;2024-01-30T00:56:06;23.0;;;15.0;;
63690;SDS011;49837;57.280;27.070;2024-01-30T00:57:07;22.1;;;16.2;;
63690;SDS011;49837;57.280;27.070;2024-01-30T00:58:07;20.2;;;15.2;;
63690;SDS011;49837;57.280;27.070;2024-01-30T00:59:07;22.1;;;16.0;;
63690;SDS011;49837;57.280;27.070;2024-01-30T01:00:08;22.2;;;15.5;;
63690;SDS011;49837;57.280;27.070;2024-01-30T01:01:08;23.8;;;15.7;;
63690;SDS011;49837;57.280;27.070;2024-01-30T01:02:08;22.1;;;16.5;;
63690;SDS011;49837;57.280;27.070;2024-01-30T01:03:08;23.9;;;16.3;;
63690;SDS011;49837;57.280;27.070;2024-01-30T01:04:09;23.0;;;16.5;;
63690;SDS011;49837;57.280;27.070;2024-01-30T01:05:09;23.5;;;16.3;;
63690;SDS011;49837;57.280;27.070;2024-01-30T01:06:10;21.7;;;16.2;;
63690;SDS011;49837;57.280;27.070;2024-01-30T01:07:10;23.1;;;16.6;;
63690;SDS011;49837;57.280;27.070;2024-01-30T01:08:10;22.9;;;16.1;;
63690;SDS011;49837;57.280;27.070;2024-01-30T01:09:11;22.6;;;16.3;;
63690;SDS011;49837;57.280;27.070;2024-01-30T01:10:11;22.6;;;16.8;;
63690;SDS011;49837;57.280;27.070;2024-01-30T01:11:11;23.6;;;16.4;;
63690;SDS011;49837;57.280;27.070;2024-01-30T01:12:12;21.9;;;16.2;;
63690;SDS011;49837;57.280;27.070;2024-01-30T01:13:12;24.3;;;16.8;;
63690;SDS011;49837;57.280;27.070;2024-01-30T01:14:12;22.5;;;16.0;;
63690;SDS011;49837;57.280;27.070;2024-01-30T01:15:13;20.5;;;15.3;;
63690;SDS011;49837;57.280;27.070;2024-01-30T01:16:13;22.2;;;15.8;;
63690;SDS011;49837;57.280;27.070;2024-01-30T01:17:13;23.2;;;16.7;;
63690;SDS011;49837;57.280;27.070;2024-01-30T01:18:14;23.6;;;16.8;;
63690;SDS011;49837;57.280;27.070;2024-01-30T01:19:14;22.1;;;16.0;;
63690;SDS011;49837;57.280;27.070;2024-01-30T01:20:14;23.2;;;16.1;;
63690;SDS011;49837;57.280;27.070;2024-01-30T01:21:15;22.2;;;15.8;;
63690;SDS011;49837;57.280;27.070;2024-01-30T01:22:15;22.9;;;16.1;;
63690;SDS011;49837;57.280;27.070;2024-01-30T01:23:15;23.1;;;16.0;;
63690;SDS011;49837;57.280;27.070;2024-01-30T01:24:16;24.8;;;15.9;;
63690;SDS011;49837;57.280;27.070;2024-01-30T01:25:16;22.4;;;16.1;;
63690;SDS011;49837;57.280;27.070;2024-01-30T01:26:16;21.5;;;15.6;;
63690;SDS011;49837;57.280;27.070;2024-01-30T01:27:17;23.7;;;16.2;;
63690;SDS011;49837;57.280;27.070;2024-01-30T01:28:17;23.3;;;16.0;;
63690;SDS011;49837;57.280;27.070;2024-01-30T01:29:17;23.5;;;16.0;;
63690;SDS011;49837;57.280;27.070;2024-01-30T01:30:18;22.8;;;16.4;;
63690;SDS011;49837;57.280;27.070;2024-01-30T01:31:18;23.8;;;16.7;;
63690;SDS011;49837;57.280;27.070;2024-01-30T01:32:19;24.9;;;16.3;;
63690;SDS011;49837;57.280;27.070;2024-01-30T01:33:19;23.0;;;16.0;;
63690;SDS011;49837;57.280;27.070;2024-01-30T01:34:19;27.1;;;17.6;;
63690;SDS011;49837;57.280;27.070;2024-01-30T01:35:19;24.0;;;17.2;;
63690;SDS011;49837;57.280;27.070;2024-01-30T01:36:20;25.0;;;17.0;;
63690;SDS011;49837;57.280;27.070;2024-01-30T01:37:20;23.6;;;16.5;;
63690;SDS011;49837;57.280;27.070;2024-01-30T01:38:21;23.9;;;17.5;;
63690;SDS011;49837;57.280;27.070;2024-01-30T01:39:22;22.6;;;16.4;;
63690;SDS011;49837;57.280;27.070;2024-01-30T01:40:25;23.0;;;16.7;;
63690;SDS011;49837;57.280;27.070;2024-01-30T01:41:23;24.0;;;17.0;;
63690;SDS011;49837;57.280;27.070;2024-01-30T01:42:23;23.7;;;17.5;;
63690;SDS011;49837;57.280;27.070;2024-01-30T01:43:24;24.1;;;18.1;;
63690;SDS011;49837;57.280;27.070;2024-01-30T01:44:24;25.6;;;18.2;;
63690;SDS011;49837;57.280;27.070;2024-01-30T01:45:24;25.7;;;18.3;;
63690;SDS011;49837;57.280;27.070;2024-01-30T01:46:27;25.2;;;18.2;;
63690;SDS011;49837;57.280;27.070;2024-01-30T01:47:29;24.3;;;17.3;;
63690;SDS011;49837;57.280;27.070;2024-01-30T01:48:29;22.9;;;16.8;;
63690;SDS011;49837;57.280;27.070;2024-01-30T01:49:30;23.9;;;17.0;;
63690;SDS011;49837;57.280;27.070;2024-01-30T01:50:30;22.9;;;16.4;;
63690;SDS011;49837;57.280;27.070;2024-01-30T01:51:31;24.1;;;16.8;;
63690;SDS011;49837;57.280;27.070;2024-01-30T01:52:31;23.4;;;16.6;;
63690;SDS011;49837;57.280;27.070;2024-01-30T01:53:31;23.5;;;17.4;;
63690;SDS011;49837;57.280;27.070;2024-01-30T01:54:31;24.1;;;17.6;;
63690;SDS011;49837;57.280;27.070;2024-01-30T01:55:32;23.7;;;16.4;;
63690;SDS011;49837;57.280;27.070;2024-01-30T01:56:32;24.0;;;17.0;;
63690;SDS011;49837;57.280;27.070;2024-01-30T01:57:33;24.0;;;17.0;;
63690;SDS011;49837;57.280;27.070;2024-01-30T01:58:33;25.0;;;17.4;;
63690;SDS011;49837;57.280;27.070;2024-01-30T01:59:33;23.4;;;17.1;;
63690;SDS011;49837;57.280;27.070;2024-01-30T02:00:33;25.0;;;17.4;;
63690;SDS011;49837;57.280;27.070;2024-01-30T02:01:34;24.7;;;18.2;;
63690;SDS011;49837;57.280;27.070;2024-01-30T02:02:34;24.1;;;17.5;;
63690;SDS011;49837;57.280;27.070;2024-01-30T02:03:34;23.0;;;17.2;;
63690;SDS011;49837;57.280;27.070;2024-01-30T02:04:35;24.1;;;17.3;;
63690;SDS011;49837;57.280;27.070;2024-01-30T02:05:35;22.9;;;17.2;;
63690;SDS011;49837;57.280;27.070;2024-01-30T02:06:35;24.9;;;17.0;;
63690;SDS011;49837;57.280;27.070;2024-01-30T02:07:36;24.4;;;17.4;;
63690;SDS011;49837;57.280;27.070;2024-01-30T02:08:37;27.2;;;17.7;;
63690;SDS011;49837;57.280;27.070;2024-01-30T02:09:36;23.6;;;17.2;;
63690;SDS011;49837;57.280;27.070;2024-01-30T02:10:37;23.5;;;17.0;;
63690;SDS011;49837;57.280;27.070;2024-01-30T02:11:37;24.3;;;17.4;;
63690;SDS011;49837;57.280;27.070;2024-01-30T02:12:38;23.3;;;17.0;;
63690;SDS011;49837;57.280;27.070;2024-01-30T02:13:38;23.3;;;16.5;;
63690;SDS011;49837;57.280;27.070;2024-01-30T02:14:47;22.3;;;16.3;;
63690;SDS011;49837;57.280;27.070;2024-01-30T02:15:40;23.6;;;16.8;;
63690;SDS011;49837;57.280;27.070;2024-01-30T02:16:40;22.8;;;16.4;;
63690;SDS011;49837;57.280;27.070;2024-01-30T02:17:40;24.7;;;17.4;;
63690;SDS011;49837;57.280;27.070;2024-01-30T02:18:41;24.4;;;16.5;;
63690;SDS011;49837;57.280;27.070;2024-01-30T02:19:41;22.8;;;15.9;;
63690;SDS011;49837;57.280;27.070;2024-01-30T02:20:41;22.9;;;15.9;;
63690;SDS011;49837;57.280;27.070;2024-01-30T02:21:42;22.8;;;16.6;;
63690;SDS011;49837;57.280;27.070;2024-01-30T02:22:42;23.6;;;17.2;;
63690;SDS011;49837;57.280;27.070;2024-01-30T02:23:46;23.2;;;16.8;;
63690;SDS011;49837;57.280;27.070;2024-01-30T02:24:45;24.9;;;17.6;;
63690;SDS011;49837;57.280;27.070;2024-01-30T02:25:45;24.2;;;17.2;;
63690;SDS011;49837;57.280;27.070;2024-01-30T02:26:46;22.7;;;16.1;;
63690;SDS011;49837;57.280;27.070;2024-01-30T02:27:46;24.8;;;16.8;;
63690;SDS011;49837;57.280;27.070;2024-01-30T02:28:46;24.2;;;16.8;;
63690;SDS011;49837;57.280;27.070;2024-01-30T02:29:47;21.8;;;15.8;;
63690;SDS011;49837;57.280;27.070;2024-01-30T02:30:47;22.7;;;16.7;;
63690;SDS011;49837;57.280;27.070;2024-01-30T02:31:47;23.0;;;16.7;;
63690;SDS011;49837;57.280;27.070;2024-01-30T02:32:48;22.6;;;16.3;;
63690;SDS011;49837;57.280;27.070;2024-01-30T02:33:48;26.0;;;17.8;;
63690;SDS011;49837;57.280;27.070;2024-01-30T02:34:48;23.3;;;16.9;;
63690;SDS011;49837;57.280;27.070;2024-01-30T02:35:49;24.0;;;16.6;;
63690;SDS011;49837;57.280;27.070;2024-01-30T02:36:49;25.2;;;17.6;;
63690;SDS011;49837;57.280;27.070;2024-01-30T02:37:49;25.7;;;17.3;;
63690;SDS011;49837;57.280;27.070;2024-01-30T02:38:50;24.9;;;17.5;;
63690;SDS011;49837;57.280;27.070;2024-01-30T02:39:50;25.1;;;17.0;;
63690;SDS011;49837;57.280;27.070;2024-01-30T02:40:50;24.0;;;16.6;;
63690;SDS011;49837;57.280;27.070;2024-01-30T02:41:51;23.0;;;16.5;;
63690;SDS011;49837;57.280;27.070;2024-01-30T02:42:51;25.6;;;18.2;;
63690;SDS011;49837;57.280;27.070;2024-01-30T02:43:51;22.6;;;16.7;;
63690;SDS011;49837;57.280;27.070;2024-01-30T02:44:52;24.8;;;17.1;;
63690;SDS011;49837;57.280;27.070;2024-01-30T02:45:52;24.2;;;17.4;;
63690;SDS011;49837;57.280;27.070;2024-01-30T02:46:53;21.7;;;16.7;;
63690;SDS011;49837;57.280;27.070;2024-01-30T02:47:53;23.2;;;16.4;;
63690;SDS011;49837;57.280;27.070;2024-01-30T02:48:53;25.1;;;17.6;;
63690;SDS011;49837;57.280;27.070;2024-01-30T02:49:53;21.9;;;16.2;;
63690;SDS011;49837;57.280;27.070;2024-01-30T02:50:54;23.5;;;16.8;;
63690;SDS011;49837;57.280;27.070;2024-01-30T02:51:54;23.2;;;17.1;;
63690;SDS011;49837;57.280;27.070;2024-01-30T02:52:54;22.7;;;17.3;;
63690;SDS011;49837;57.280;27.070;2024-01-30T02:53:55;24.2;;;17.0;;
63690;SDS011;49837;57.280;27.070;2024-01-30T02:54:55;23.1;;;17.4;;
63690;SDS011;49837;57.280;27.070;2024-01-30T02:55:55;24.2;;;17.3;;
63690;SDS011;49837;57.280;27.070;2024-01-30T02:56:56;24.5;;;16.5;;
63690;SDS011;49837;57.280;27.070;2024-01-30T02:57:56;24.9;;;16.7;;
63690;SDS011;49837;57.280;27.070;2024-01-30T02:58:56;24.4;;;17.0;;
63690;SDS011;49837;57.280;27.070;2024-01-30T02:59:57;24.0;;;16.7;;
63690;SDS011;49837;57.280;27.070;2024-01-30T03:00:57;24.1;;;16.8;;
63690;SDS011;49837;57.280;27.070;2024-01-30T03:01:57;25.0;;;17.4;;
63690;SDS011;49837;57.280;27.070;2024-01-30T03:02:58;23.3;;;16.9;;
63690;SDS011;49837;57.280;27.070;2024-01-30T03:03:58;23.5;;;16.5;;
63690;SDS011;49837;57.280;27.070;2024-01-30T03:04:59;24.4;;;17.6;;
63690;SDS011;49837;57.280;27.070;2024-01-30T03:05:59;23.4;;;17.2;;
63690;SDS011;49837;57.280;27.070;2024-01-30T03:06:59;22.7;;;17.4;;
63690;SDS011;49837;57.280;27.070;2024-01-30T03:07:59;23.1;;;16.8;;
63690;SDS011;49837;57.280;27.070;2024-01-30T03:09:00;22.1;;;17.3;;
63690;SDS011;49837;57.280;27.070;2024-01-30T03:10:00;25.4;;;17.6;;
63690;SDS011;49837;57.280;27.070;2024-01-30T03:11:00;24.8;;;16.6;;
63690;SDS011;49837;57.280;27.070;2024-01-30T03:12:01;22.1;;;16.2;;
63690;SDS011;49837;57.280;27.070;2024-01-30T03:13:01;24.5;;;17.4;;
63690;SDS011;49837;57.280;27.070;2024-01-30T03:14:01;27.5;;;19.2;;
63690;SDS011;49837;57.280;27.070;2024-01-30T03:15:02;22.8;;;16.8;;
63690;SDS011;49837;57.280;27.070;2024-01-30T03:16:02;24.9;;;17.4;;
63690;SDS011;49837;57.280;27.070;2024-01-30T03:17:03;24.6;;;17.8;;
63690;SDS011;49837;57.280;27.070;2024-01-30T03:18:03;25.0;;;18.2;;
63690;SDS011;49837;57.280;27.070;2024-01-30T03:19:04;26.3;;;17.7;;
63690;SDS011;49837;57.280;27.070;2024-01-30T03:20:04;25.3;;;17.7;;
63690;SDS011;49837;57.280;27.070;2024-01-30T03:21:04;25.7;;;17.8;;
63690;SDS011;49837;57.280;27.070;2024-01-30T03:22:04;25.8;;;18.7;;
63690;SDS011;49837;57.280;27.070;2024-01-30T03:23:05;25.3;;;18.3;;
63690;SDS011;49837;57.280;27.070;2024-01-30T03:24:05;26.2;;;18.2;;
63690;SDS011;49837;57.280;27.070;2024-01-30T03:25:05;26.7;;;18.7;;
63690;SDS011;49837;57.280;27.070;2024-01-30T03:26:06;24.4;;;18.2;;
63690;SDS011;49837;57.280;27.070;2024-01-30T03:27:06;24.6;;;17.9;;
63690;SDS011;49837;57.280;27.070;2024-01-30T03:28:06;61.7;;;34.6;;
63690;SDS011;49837;57.280;27.070;2024-01-30T03:29:06;47.8;;;28.1;;
63690;SDS011;49837;57.280;27.070;2024-01-30T03:30:07;30.9;;;21.2;;
63690;SDS011;49837;57.280;27.070;2024-01-30T03:31:07;39.0;;;24.6;;
63690;SDS011;49837;57.280;27.070;2024-01-30T03:32:07;35.7;;;22.8;;
63690;SDS011;49837;57.280;27.070;2024-01-30T03:33:08;31.7;;;20.7;;
63690;SDS011;49837;57.280;27.070;2024-01-30T03:34:08;32.7;;;20.6;;
63690;SDS011;49837;57.280;27.070;2024-01-30T03:35:09;29.3;;;19.3;;
63690;SDS011;49837;57.280;27.070;2024-01-30T03:36:09;28.9;;;19.8;;
63690;SDS011;49837;57.280;27.070;2024-01-30T03:37:09;29.7;;;19.8;;
63690;SDS011;49837;57.280;27.070;2024-01-30T03:38:09;27.5;;;19.1;;
63690;SDS011;49837;57.280;27.070;2024-01-30T03:39:10;24.9;;;17.4;;
63690;SDS011;49837;57.280;27.070;2024-01-30T03:40:11;26.8;;;18.5;;
63690;SDS011;49837;57.280;27.070;2024-01-30T03:41:11;24.2;;;18.0;;
63690;SDS011;49837;57.280;27.070;2024-01-30T03:42:11;23.6;;;17.4;;
63690;SDS011;49837;57.280;27.070;2024-01-30T03:43:11;24.8;;;17.1;;
63690;SDS011;49837;57.280;27.070;2024-01-30T03:44:12;22.8;;;16.9;;
63690;SDS011;49837;57.280;27.070;2024-01-30T03:45:12;23.2;;;17.2;;
63690;SDS011;49837;57.280;27.070;2024-01-30T03:46:12;25.6;;;17.4;;
63690;SDS011;49837;57.280;27.070;2024-01-30T03:47:13;22.1;;;16.5;;
63690;SDS011;49837;57.280;27.070;2024-01-30T03:48:13;23.1;;;17.3;;
63690;SDS011;49837;57.280;27.070;2024-01-30T03:49:13;23.5;;;16.7;;
63690;SDS011;49837;57.280;27.070;2024-01-30T03:50:14;25.1;;;17.4;;
63690;SDS011;49837;57.280;27.070;2024-01-30T03:51:14;26.6;;;17.4;;
63690;SDS011;49837;57.280;27.070;2024-01-30T03:52:14;24.7;;;17.7;;
63690;SDS011;49837;57.280;27.070;2024-01-30T03:53:15;24.4;;;17.4;;
63690;SDS011;49837;57.280;27.070;2024-01-30T03:54:15;26.7;;;17.6;;
63690;SDS011;49837;57.280;27.070;2024-01-30T03:55:15;22.7;;;17.4;;
63690;SDS011;49837;57.280;27.070;2024-01-30T03:56:16;24.5;;;17.4;;
63690;SDS011;49837;57.280;27.070;2024-01-30T03:57:16;23.9;;;17.7;;
63690;SDS011;49837;57.280;27.070;2024-01-30T03:58:16;25.0;;;17.5;;
63690;SDS011;49837;57.280;27.070;2024-01-30T03:59:17;25.1;;;17.8;;
63690;SDS011;49837;57.280;27.070;2024-01-30T04:00:17;23.2;;;17.2;;
63690;SDS011;49837;57.280;27.070;2024-01-30T04:01:17;24.2;;;16.9;;
63690;SDS011;49837;57.280;27.070;2024-01-30T04:02:18;25.2;;;17.3;;
63690;SDS011;49837;57.280;27.070;2024-01-30T04:03:18;24.9;;;17.1;;
63690;SDS011;49837;57.280;27.070;2024-01-30T04:04:18;24.4;;;17.3;;
63690;SDS011;49837;57.280;27.070;2024-01-30T04:05:19;25.1;;;17.4;;
63690;SDS011;49837;57.280;27.070;2024-01-30T04:06:19;26.3;;;17.8;;
63690;SDS011;49837;57.280;27.070;2024-01-30T04:07:19;24.8;;;17.6;;
63690;SDS011;49837;57.280;27.070;2024-01-30T04:08:20;25.6;;;17.6;;
63690;SDS011;49837;57.280;27.070;2024-01-30T04:09:20;25.3;;;17.6;;
63690;SDS011;49837;57.280;27.070;2024-01-30T04:10:21;24.0;;;18.2;;
63690;SDS011;49837;57.280;27.070;2024-01-30T04:11:21;23.2;;;17.4;;
63690;SDS011;49837;57.280;27.070;2024-01-30T04:12:21;23.8;;;17.5;;
63690;SDS011;49837;57.280;27.070;2024-01-30T04:13:22;26.3;;;17.2;;
63690;SDS011;49837;57.280;27.070;2024-01-30T04:14:22;25.1;;;18.5;;
63690;SDS011;49837;57.280;27.070;2024-01-30T04:15:22;24.8;;;17.2;;
63690;SDS011;49837;57.280;27.070;2024-01-30T04:16:23;25.0;;;17.5;;
63690;SDS011;49837;57.280;27.070;2024-01-30T04:17:23;24.8;;;17.3;;
63690;SDS011;49837;57.280;27.070;2024-01-30T04:18:23;24.5;;;17.8;;
63690;SDS011;49837;57.280;27.070;2024-01-30T04:19:24;24.5;;;17.8;;
63690;SDS011;49837;57.280;27.070;2024-01-30T04:20:24;23.5;;;17.4;;
63690;SDS011;49837;57.280;27.070;2024-01-30T04:21:24;25.5;;;17.7;;
63690;SDS011;49837;57.280;27.070;2024-01-30T04:22:25;24.4;;;18.0;;
63690;SDS011;49837;57.280;27.070;2024-01-30T04:23:25;24.2;;;18.3;;
63690;SDS011;49837;57.280;27.070;2024-01-30T04:24:25;25.4;;;18.3;;
63690;SDS011;49837;57.280;27.070;2024-01-30T04:25:26;28.3;;;18.9;;
63690;SDS011;49837;57.280;27.070;2024-01-30T04:26:26;25.5;;;19.2;;
63690;SDS011;49837;57.280;27.070;2024-01-30T04:27:26;27.0;;;19.2;;
63690;SDS011;49837;57.280;27.070;2024-01-30T04:28:27;26.0;;;19.3;;
63690;SDS011;49837;57.280;27.070;2024-01-30T04:29:27;25.9;;;18.7;;
63690;SDS011;49837;57.280;27.070;2024-01-30T04:30:27;26.3;;;19.3;;
63690;SDS011;49837;57.280;27.070;2024-01-30T04:31:28;25.1;;;18.5;;
63690;SDS011;49837;57.280;27.070;2024-01-30T04:32:28;24.5;;;18.0;;
63690;SDS011;49837;57.280;27.070;2024-01-30T04:33:29;24.7;;;18.3;;
63690;SDS011;49837;57.280;27.070;2024-01-30T04:34:29;28.8;;;20.4;;
63690;SDS011;49837;57.280;27.070;2024-01-30T04:35:29;26.4;;;18.8;;
63690;SDS011;49837;57.280;27.070;2024-01-30T04:36:29;27.2;;;18.8;;
63690;SDS011;49837;57.280;27.070;2024-01-30T04:37:30;29.0;;;20.0;;
63690;SDS011;49837;57.280;27.070;2024-01-30T04:38:31;27.1;;;19.5;;
63690;SDS011;49837;57.280;27.070;2024-01-30T04:39:32;27.5;;;20.0;;
63690;SDS011;49837;57.280;27.070;2024-01-30T04:40:31;26.9;;;19.9;;
63690;SDS011;49837;57.280;27.070;2024-01-30T04:41:31;45.1;;;30.0;;
63690;SDS011;49837;57.280;27.070;2024-01-30T04:42:32;30.6;;;22.2;;
63690;SDS011;49837;57.280;27.070;2024-01-30T04:43:32;38.7;;;25.3;;
63690;SDS011;49837;57.280;27.070;2024-01-30T04:44:32;35.3;;;23.8;;
63690;SDS011;49837;57.280;27.070;2024-01-30T04:45:32;31.7;;;22.3;;
63690;SDS011;49837;57.280;27.070;2024-01-30T04:46:33;29.7;;;21.2;;
63690;SDS011;49837;57.280;27.070;2024-01-30T04:47:33;30.2;;;21.0;;
63690;SDS011;49837;57.280;27.070;2024-01-30T04:48:34;29.5;;;21.3;;
63690;SDS011;49837;57.280;27.070;2024-01-30T04:49:34;29.7;;;20.5;;
63690;SDS011;49837;57.280;27.070;2024-01-30T04:50:34;27.2;;;19.3;;
63690;SDS011;49837;57.280;27.070;2024-01-30T04:51:34;27.3;;;19.4;;
63690;SDS011;49837;57.280;27.070;2024-01-30T04:52:35;27.0;;;19.2;;
63690;SDS011;49837;57.280;27.070;2024-01-30T04:53:35;25.0;;;19.0;;
63690;SDS011;49837;57.280;27.070;2024-01-30T04:54:36;26.5;;;18.3;;
63690;SDS011;49837;57.280;27.070;2024-01-30T04:55:36;28.4;;;20.6;;
63690;SDS011;49837;57.280;27.070;2024-01-30T04:56:36;29.9;;;21.7;;
63690;SDS011;49837;57.280;27.070;2024-01-30T04:57:37;26.5;;;20.0;;
63690;SDS011;49837;57.280;27.070;2024-01-30T04:58:37;27.2;;;20.6;;
63690;SDS011;49837;57.280;27.070;2024-01-30T04:59:37;26.7;;;18.2;;
63690;SDS011;49837;57.280;27.070;2024-01-30T05:00:38;24.7;;;18.1;;
63690;SDS011;49837;57.280;27.070;2024-01-30T05:01:38;24.9;;;18.5;;
63690;SDS011;49837;57.280;27.070;2024-01-30T05:02:38;24.3;;;17.9;;
63690;SDS011;49837;57.280;27.070;2024-01-30T05:03:39;26.2;;;18.3;;
63690;SDS011;49837;57.280;27.070;2024-01-30T05:04:40;24.8;;;18.4;;
63690;SDS011;49837;57.280;27.070;2024-01-30T05:05:39;24.7;;;18.3;;
63690;SDS011;49837;57.280;27.070;2024-01-30T05:06:40;29.0;;;20.1;;
63690;SDS011;49837;57.280;27.070;2024-01-30T05:07:41;26.4;;;19.7;;
63690;SDS011;49837;57.280;27.070;2024-01-30T05:08:40;28.9;;;20.6;;
63690;SDS011;49837;57.280;27.070;2024-01-30T05:09:41;27.9;;;19.5;;
63690;SDS011;49837;57.280;27.070;2024-01-30T05:10:41;26.0;;;18.8;;
63690;SDS011;49837;57.280;27.070;2024-01-30T05:11:41;33.4;;;22.4;;
63690;SDS011;49837;57.280;27.070;2024-01-30T05:12:42;69.9;;;37.1;;
63690;SDS011;49837;57.280;27.070;2024-01-30T05:13:42;65.2;;;35.5;;
63690;SDS011;49837;57.280;27.070;2024-01-30T05:14:42;56.0;;;29.6;;
63690;SDS011;49837;57.280;27.070;2024-01-30T05:15:43;71.9;;;37.5;;
63690;SDS011;49837;57.280;27.070;2024-01-30T05:16:43;52.2;;;30.8;;
63690;SDS011;49837;57.280;27.070;2024-01-30T05:17:43;54.9;;;31.2;;
63690;SDS011;49837;57.280;27.070;2024-01-30T05:18:44;47.5;;;28.8;;
63690;SDS011;49837;57.280;27.070;2024-01-30T05:19:44;49.3;;;29.2;;
63690;SDS011;49837;57.280;27.070;2024-01-30T05:20:44;43.9;;;27.1;;
63690;SDS011;49837;57.280;27.070;2024-01-30T05:21:45;36.2;;;23.8;;
63690;SDS011;49837;57.280;27.070;2024-01-30T05:22:45;37.8;;;24.8;;
63690;SDS011;49837;57.280;27.070;2024-01-30T05:23:45;38.5;;;24.7;;
63690;SDS011;49837;57.280;27.070;2024-01-30T05:24:46;45.5;;;28.5;;
63690;SDS011;49837;57.280;27.070;2024-01-30T05:25:46;32.1;;;21.6;;
63690;SDS011;49837;57.280;27.070;2024-01-30T05:26:46;24.4;;;18.1;;
63690;SDS011;49837;57.280;27.070;2024-01-30T05:27:47;25.6;;;18.2;;
63690;SDS011;49837;57.280;27.070;2024-01-30T05:28:47;25.6;;;17.9;;
63690;SDS011;49837;57.280;27.070;2024-01-30T05:29:47;28.1;;;18.1;;
63690;SDS011;49837;57.280;27.070;2024-01-30T05:30:48;25.6;;;18.4;;
63690;SDS011;49837;57.280;27.070;2024-01-30T05:31:48;26.0;;;18.9;;
63690;SDS011;49837;57.280;27.070;2024-01-30T05:32:48;30.0;;;21.9;;
63690;SDS011;49837;57.280;27.070;2024-01-30T05:33:49;28.1;;;19.6;;
63690;SDS011;49837;57.280;27.070;2024-01-30T05:34:49;32.9;;;22.5;;
63690;SDS011;49837;57.280;27.070;2024-01-30T05:35:49;24.6;;;18.4;;
63690;SDS011;49837;57.280;27.070;2024-01-30T05:36:50;25.8;;;18.3;;
63690;SDS011;49837;57.280;27.070;2024-01-30T05:37:50;27.9;;;20.9;;
63690;SDS011;49837;57.280;27.070;2024-01-30T05:38:50;39.7;;;25.0;;
63690;SDS011;49837;57.280;27.070;2024-01-30T05:39:51;35.7;;;24.9;;
63690;SDS011;49837;57.280;27.070;2024-01-30T05:40:51;37.9;;;25.2;;
63690;SDS011;49837;57.280;27.070;2024-01-30T05:41:51;32.2;;;21.6;;
63690;SDS011;49837;57.280;27.070;2024-01-30T05:42:52;29.0;;;19.8;;
63690;SDS011;49837;57.280;27.070;2024-01-30T05:43:52;29.2;;;20.1;;
63690;SDS011;49837;57.280;27.070;2024-01-30T05:44:52;29.1;;;20.3;;
63690;SDS011;49837;57.280;27.070;2024-01-30T05:45:53;28.9;;;20.6;;
63690;SDS011;49837;57.280;27.070;2024-01-30T05:46:53;32.7;;;22.5;;
63690;SDS011;49837;57.280;27.070;2024-01-30T05:47:53;34.5;;;24.3;;
63690;SDS011;49837;57.280;27.070;2024-01-30T05:48:54;33.2;;;22.4;;
63690;SDS011;49837;57.280;27.070;2024-01-30T05:49:54;29.3;;;22.1;;
63690;SDS011;49837;57.280;27.070;2024-01-30T05:50:54;29.4;;;20.4;;
63690;SDS011;49837;57.280;27.070;2024-01-30T05:51:55;27.6;;;18.8;;
63690;SDS011;49837;57.280;27.070;2024-01-30T05:52:55;27.2;;;19.3;;
63690;SDS011;49837;57.280;27.070;2024-01-30T05:53:55;27.6;;;19.0;;
63690;SDS011;49837;57.280;27.070;2024-01-30T05:54:56;28.0;;;19.0;;
63690;SDS011;49837;57.280;27.070;2024-01-30T05:55:56;27.1;;;19.1;;
63690;SDS011;49837;57.280;27.070;2024-01-30T05:56:56;28.2;;;19.6;;
63690;SDS011;49837;57.280;27.070;2024-01-30T05:57:57;27.8;;;19.0;;